Fort Nelson Airport
CYYE : now visible

Airfield :











YOU CAN JOIN US ON...

 
LOGIN :

Register | Disclaimer

   EN    FR    IT 

 









Legend :    VFR   Marginal VFR   IFR   Intensive IFR   Very Intensive IFR
Visi :
Ceiling :
>= 8 km
>= 3000ft
5 to 8 km
1000 to 3000 ft
1500m to 5 km
500 to 1000 ft
800 to 1500m
200 to 500 ft
< 800m
< 200 ft
Symbols :   Thunderstorms  Fog  Heavy snow  Heavy precipitations  Wind > 20 kt






- Airport Elevation : 1253 ft
- IATA code : YYE


CYYE - Fort Nelson

CURRENT METAR :
  • 060300Z 09005KT 30SM FEW085 SCT100 M01/M12 A2971 RMK AC1AC3 SLP087

EXPIRED METARs :
  • 060200Z 11006KT 090V170 30SM FEW064 FEW087 SCT100 01/M12 A2971 RMK SC1AC1AC2 SC TR SLP089
  • 060100Z 09005KT 30SM FEW050 FEW088 BKN100 01/M11 A2973 RMK SC1AC1AC3 SLP093

TAF TAF CYYE
Valid from the 06 at 01:00 until the 06 at 13:00 UTC


060038Z 0601/0613 VRB03KT P6SM FEW060 SCT090 BKN120
FM061000 12005KT P6SM SCT060 BKN080 RMK NXT FCST BY 060700Z



MET'MAP, your aeronautical weather chart ! - Copyright ORBIFLY December 2007 - Disclaimer

ORBIFLY MET'MAP TEAM :

Programming & Development : Alexandra Zaïnal
Concept & original design : Baudouin d'Aumeries
Assistance for programming : Marc-Olivier Méhu
Technical & hardware support : Manuel Goepfert

Contact : metmap@orbifly.com




SOURCES & CREDITS :

   NOAA       Earth
Advisory